sensor_id;sensor_type;location;lat;lon;timestamp;pressure;altitude;pressure_sealevel;temperature;humidity
41264;BME280;26998;48.714;9.414;2023-05-21T00:01:47;99205.75;;;14.08;100.00
41264;BME280;26998;48.714;9.414;2023-05-21T00:04:14;99212.44;;;13.99;100.00
41264;BME280;26998;48.714;9.414;2023-05-21T00:06:41;99235.97;;;13.97;100.00
41264;BME280;26998;48.714;9.414;2023-05-21T00:09:07;99245.91;;;13.96;100.00
41264;BME280;26998;48.714;9.414;2023-05-21T00:11:34;99245.69;;;13.98;100.00
41264;BME280;26998;48.714;9.414;2023-05-21T00:14:01;99233.94;;;13.99;100.00
41264;BME280;26998;48.714;9.414;2023-05-21T00:16:28;99221.31;;;13.99;100.00
41264;BME280;26998;48.714;9.414;2023-05-21T00:18:54;99203.31;;;14.00;100.00
41264;BME280;26998;48.714;9.414;2023-05-21T00:21:21;99204.97;;;14.01;100.00
41264;BME280;26998;48.714;9.414;2023-05-21T00:23:48;99207.06;;;13.99;100.00
41264;BME280;26998;48.714;9.414;2023-05-21T00:26:15;99199.59;;;13.94;100.00
41264;BME280;26998;48.714;9.414;2023-05-21T00:28:41;99198.59;;;13.89;100.00
41264;BME280;26998;48.714;9.414;2023-05-21T00:31:08;99213.06;;;13.88;100.00
41264;BME280;26998;48.714;9.414;2023-05-21T00:33:35;99211.00;;;13.90;100.00
41264;BME280;26998;48.714;9.414;2023-05-21T00:36:01;99191.53;;;13.94;100.00
41264;BME280;26998;48.714;9.414;2023-05-21T00:38:28;99178.75;;;13.96;100.00
41264;BME280;26998;48.714;9.414;2023-05-21T00:40:55;99178.50;;;13.98;100.00
41264;BME280;26998;48.714;9.414;2023-05-21T00:43:21;99184.72;;;13.92;100.00
41264;BME280;26998;48.714;9.414;2023-05-21T00:45:50;99207.28;;;13.84;100.00
41264;BME280;26998;48.714;9.414;2023-05-21T00:48:17;99223.44;;;13.77;100.00
41264;BME280;26998;48.714;9.414;2023-05-21T00:50:43;99236.84;;;13.77;100.00
41264;BME280;26998;48.714;9.414;2023-05-21T00:53:10;99251.31;;;13.76;100.00
41264;BME280;26998;48.714;9.414;2023-05-21T00:55:38;99252.56;;;13.74;100.00
41264;BME280;26998;48.714;9.414;2023-05-21T00:58:06;99251.13;;;13.71;100.00
41264;BME280;26998;48.714;9.414;2023-05-21T01:00:34;99267.84;;;13.67;100.00
41264;BME280;26998;48.714;9.414;2023-05-21T01:03:00;99279.41;;;13.67;100.00
41264;BME280;26998;48.714;9.414;2023-05-21T01:05:28;99278.19;;;13.63;100.00
41264;BME280;26998;48.714;9.414;2023-05-21T01:07:55;99289.56;;;13.65;100.00
41264;BME280;26998;48.714;9.414;2023-05-21T01:10:23;99288.50;;;13.66;100.00
41264;BME280;26998;48.714;9.414;2023-05-21T01:12:54;99282.09;;;13.67;100.00
41264;BME280;26998;48.714;9.414;2023-05-21T01:15:21;99278.59;;;13.67;100.00
41264;BME280;26998;48.714;9.414;2023-05-21T01:17:49;99273.22;;;13.67;100.00
41264;BME280;26998;48.714;9.414;2023-05-21T01:20:18;99294.94;;;13.65;100.00
41264;BME280;26998;48.714;9.414;2023-05-21T01:22:55;99302.56;;;13.61;100.00
41264;BME280;26998;48.714;9.414;2023-05-21T01:25:21;99314.16;;;13.62;100.00
41264;BME280;26998;48.714;9.414;2023-05-21T01:27:49;99322.38;;;13.60;100.00
41264;BME280;26998;48.714;9.414;2023-05-21T01:30:17;99316.19;;;13.60;100.00
41264;BME280;26998;48.714;9.414;2023-05-21T01:33:01;99324.06;;;13.61;100.00
41264;BME280;26998;48.714;9.414;2023-05-21T01:35:32;99323.22;;;13.61;100.00
41264;BME280;26998;48.714;9.414;2023-05-21T01:38:24;99324.88;;;13.62;100.00
41264;BME280;26998;48.714;9.414;2023-05-21T01:41:02;99336.63;;;13.61;100.00
41264;BME280;26998;48.714;9.414;2023-05-21T01:43:33;99331.91;;;13.56;100.00
41264;BME280;26998;48.714;9.414;2023-05-21T01:46:04;99320.75;;;13.46;100.00
41264;BME280;26998;48.714;9.414;2023-05-21T01:48:31;99331.47;;;13.39;100.00
41264;BME280;26998;48.714;9.414;2023-05-21T01:51:03;99325.06;;;13.40;100.00
41264;BME280;26998;48.714;9.414;2023-05-21T01:53:31;99334.34;;;13.38;100.00
41264;BME280;26998;48.714;9.414;2023-05-21T01:55:57;99345.72;;;13.33;100.00
41264;BME280;26998;48.714;9.414;2023-05-21T01:58:24;99346.53;;;13.27;100.00
41264;BME280;26998;48.714;9.414;2023-05-21T02:00:52;99352.91;;;13.26;100.00
41264;BME280;26998;48.714;9.414;2023-05-21T02:03:19;99356.19;;;13.22;100.00
41264;BME280;26998;48.714;9.414;2023-05-21T02:05:46;98858.72;;;13.09;100.00
41264;BME280;26998;48.714;9.414;2023-05-21T02:08:13;98838.94;;;12.97;100.00
41264;BME280;26998;48.714;9.414;2023-05-21T02:10:40;98833.59;;;12.97;100.00
41264;BME280;26998;48.714;9.414;2023-05-21T02:13:07;98822.91;;;12.90;100.00
41264;BME280;26998;48.714;9.414;2023-05-21T02:15:35;98823.31;;;12.87;100.00
41264;BME280;26998;48.714;9.414;2023-05-21T02:18:02;98820.25;;;12.84;100.00
41264;BME280;26998;48.714;9.414;2023-05-21T02:20:29;98821.91;;;12.78;100.00
41264;BME280;26998;48.714;9.414;2023-05-21T02:23:03;98816.75;;;12.77;100.00
41264;BME280;26998;48.714;9.414;2023-05-21T02:25:29;98806.63;;;12.79;100.00
41264;BME280;26998;48.714;9.414;2023-05-21T02:27:56;98806.84;;;12.77;100.00
41264;BME280;26998;48.714;9.414;2023-05-21T02:30:23;98802.31;;;12.78;100.00
41264;BME280;26998;48.714;9.414;2023-05-21T02:32:50;98797.78;;;12.78;100.00
41264;BME280;26998;48.714;9.414;2023-05-21T02:35:17;98807.25;;;12.81;100.00
41264;BME280;26998;48.714;9.414;2023-05-21T02:37:43;98805.59;;;12.80;100.00
41264;BME280;26998;48.714;9.414;2023-05-21T02:40:10;98803.72;;;12.80;100.00
41264;BME280;26998;48.714;9.414;2023-05-21T02:42:38;98805.41;;;12.81;100.00
41264;BME280;26998;48.714;9.414;2023-05-21T02:45:09;98804.56;;;12.81;100.00
41264;BME280;26998;48.714;9.414;2023-05-21T02:47:37;98804.78;;;12.79;100.00
41264;BME280;26998;48.714;9.414;2023-05-21T02:50:05;98796.13;;;12.77;100.00
41264;BME280;26998;48.714;9.414;2023-05-21T02:52:32;98786.66;;;12.75;100.00
41264;BME280;26998;48.714;9.414;2023-05-21T02:54:59;98784.78;;;12.75;100.00
41264;BME280;26998;48.714;9.414;2023-05-21T02:57:26;98783.16;;;12.74;100.00
41264;BME280;26998;48.714;9.414;2023-05-21T02:59:52;98770.78;;;12.73;100.00
41264;BME280;26998;48.714;9.414;2023-05-21T03:02:19;98765.00;;;12.69;100.00
41264;BME280;26998;48.714;9.414;2023-05-21T03:04:46;98754.94;;;12.65;100.00
41264;BME280;26998;48.714;9.414;2023-05-21T03:07:14;98747.91;;;12.64;100.00
41264;BME280;26998;48.714;9.414;2023-05-21T03:09:40;98744.66;;;12.62;100.00
41264;BME280;26998;48.714;9.414;2023-05-21T03:12:07;98747.53;;;12.60;100.00
41264;BME280;26998;48.714;9.414;2023-05-21T03:14:34;98737.03;;;12.59;100.00
41264;BME280;26998;48.714;9.414;2023-05-21T03:17:01;98739.72;;;12.59;100.00
41264;BME280;26998;48.714;9.414;2023-05-21T03:19:28;98742.59;;;12.57;100.00
41264;BME280;26998;48.714;9.414;2023-05-21T03:21:54;98747.34;;;12.55;100.00
41264;BME280;26998;48.714;9.414;2023-05-21T03:24:21;98753.97;;;12.53;100.00
41264;BME280;26998;48.714;9.414;2023-05-21T03:26:48;98754.19;;;12.44;100.00
41264;BME280;26998;48.714;9.414;2023-05-21T03:29:15;98752.16;;;12.33;100.00
41264;BME280;26998;48.714;9.414;2023-05-21T03:31:41;98747.25;;;12.23;100.00
41264;BME280;26998;48.714;9.414;2023-05-21T03:34:08;98734.94;;;12.16;100.00
41264;BME280;26998;48.714;9.414;2023-05-21T03:36:35;98718.47;;;12.12;100.00
41264;BME280;26998;48.714;9.414;2023-05-21T03:39:01;98711.25;;;12.06;100.00
41264;BME280;26998;48.714;9.414;2023-05-21T03:41:28;98695.19;;;12.06;100.00
41264;BME280;26998;48.714;9.414;2023-05-21T03:43:55;98693.53;;;12.05;100.00
41264;BME280;26998;48.714;9.414;2023-05-21T03:46:22;98690.03;;;12.05;100.00
41264;BME280;26998;48.714;9.414;2023-05-21T03:48:48;98692.94;;;12.03;100.00
41264;BME280;26998;48.714;9.414;2023-05-21T03:51:15;98692.31;;;12.01;100.00
41264;BME280;26998;48.714;9.414;2023-05-21T03:53:41;98701.59;;;11.98;100.00
41264;BME280;26998;48.714;9.414;2023-05-21T03:56:08;98695.63;;;11.96;100.00
41264;BME280;26998;48.714;9.414;2023-05-21T03:58:35;98690.88;;;11.98;100.00
41264;BME280;26998;48.714;9.414;2023-05-21T04:01:02;98699.72;;;11.99;100.00
41264;BME280;26998;48.714;9.414;2023-05-21T04:03:29;98701.41;;;12.00;100.00
41264;BME280;26998;48.714;9.414;2023-05-21T04:05:56;98706.09;;;12.05;100.00
41264;BME280;26998;48.714;9.414;2023-05-21T04:08:23;98709.81;;;12.04;100.00
41264;BME280;26998;48.714;9.414;2023-05-21T04:10:49;98709.41;;;12.07;100.00
41264;BME280;26998;48.714;9.414;2023-05-21T04:13:17;98703.41;;;12.11;100.00
41264;BME280;26998;48.714;9.414;2023-05-21T04:15:46;98702.78;;;12.16;100.00
41264;BME280;26998;48.714;9.414;2023-05-21T04:18:13;98708.97;;;12.16;100.00
41264;BME280;26998;48.714;9.414;2023-05-21T04:20:40;98704.03;;;12.13;100.00
41264;BME280;26998;48.714;9.414;2023-05-21T04:23:06;98721.13;;;12.12;100.00
41264;BME280;26998;48.714;9.414;2023-05-21T04:25:33;98724.41;;;12.14;100.00
41264;BME280;26998;48.714;9.414;2023-05-21T04:28:00;98733.25;;;12.21;100.00
41264;BME280;26998;48.714;9.414;2023-05-21T04:30:27;98747.06;;;12.25;100.00
41264;BME280;26998;48.714;9.414;2023-05-21T04:32:53;98762.94;;;12.20;100.00
41264;BME280;26998;48.714;9.414;2023-05-21T04:35:20;98778.22;;;12.13;100.00
41264;BME280;26998;48.714;9.414;2023-05-21T04:37:46;98782.13;;;12.10;100.00
41264;BME280;26998;48.714;9.414;2023-05-21T04:40:13;98776.78;;;12.04;100.00
41264;BME280;26998;48.714;9.414;2023-05-21T04:42:40;98768.78;;;11.97;100.00
41264;BME280;26998;48.714;9.414;2023-05-21T04:45:07;98760.94;;;11.95;100.00
41264;BME280;26998;48.714;9.414;2023-05-21T04:47:34;98752.91;;;11.95;100.00
41264;BME280;26998;48.714;9.414;2023-05-21T04:50:01;98754.56;;;11.96;100.00
41264;BME280;26998;48.714;9.414;2023-05-21T04:52:28;98751.84;;;12.10;100.00
41264;BME280;26998;48.714;9.414;2023-05-21T04:54:54;98759.63;;;12.18;100.00
41264;BME280;26998;48.714;9.414;2023-05-21T04:57:21;98775.28;;;12.34;100.00
41264;BME280;26998;48.714;9.414;2023-05-21T04:59:48;98789.47;;;12.41;100.00
41264;BME280;26998;48.714;9.414;2023-05-21T05:02:14;98804.06;;;12.52;100.00
41264;BME280;26998;48.714;9.414;2023-05-21T05:04:41;98823.03;;;12.57;100.00
41264;BME280;26998;48.714;9.414;2023-05-21T05:07:08;98840.31;;;12.61;100.00
41264;BME280;26998;48.714;9.414;2023-05-21T05:09:35;98855.00;;;12.59;100.00
41264;BME280;26998;48.714;9.414;2023-05-21T05:12:01;98854.31;;;12.70;100.00
41264;BME280;26998;48.714;9.414;2023-05-21T05:14:28;98867.72;;;12.70;100.00
41264;BME280;26998;48.714;9.414;2023-05-21T05:16:55;98870.81;;;12.74;100.00
41264;BME280;26998;48.714;9.414;2023-05-21T05:19:22;98874.34;;;12.74;100.00
41264;BME280;26998;48.714;9.414;2023-05-21T05:21:48;98867.25;;;12.86;100.00
41264;BME280;26998;48.714;9.414;2023-05-21T05:24:15;98879.44;;;12.82;100.00
41264;BME280;26998;48.714;9.414;2023-05-21T05:26:42;98878.78;;;12.93;100.00
41264;BME280;26998;48.714;9.414;2023-05-21T05:29:08;98884.94;;;13.01;100.00
41264;BME280;26998;48.714;9.414;2023-05-21T05:31:35;98888.25;;;13.03;100.00
41264;BME280;26998;48.714;9.414;2023-05-21T05:34:02;98887.44;;;13.02;100.00
41264;BME280;26998;48.714;9.414;2023-05-21T05:36:28;98883.84;;;13.22;100.00
41264;BME280;26998;48.714;9.414;2023-05-21T05:38:55;98900.56;;;13.17;100.00
41264;BME280;26998;48.714;9.414;2023-05-21T05:41:22;98890.31;;;13.46;100.00
41264;BME280;26998;48.714;9.414;2023-05-21T05:43:49;98896.81;;;13.63;100.00
41264;BME280;26998;48.714;9.414;2023-05-21T05:46:15;98908.78;;;13.67;100.00
41264;BME280;26998;48.714;9.414;2023-05-21T05:48:42;98911.97;;;13.82;100.00
41264;BME280;26998;48.714;9.414;2023-05-21T05:51:09;98915.47;;;14.15;100.00
41264;BME280;26998;48.714;9.414;2023-05-21T05:53:35;98919.34;;;14.44;100.00
41264;BME280;26998;48.714;9.414;2023-05-21T05:56:02;98920.88;;;14.76;100.00
41264;BME280;26998;48.714;9.414;2023-05-21T05:58:29;98901.38;;;15.18;100.00
41264;BME280;26998;48.714;9.414;2023-05-21T06:00:56;98881.69;;;15.47;100.00
41264;BME280;26998;48.714;9.414;2023-05-21T06:03:22;98866.19;;;15.61;100.00
41264;BME280;26998;48.714;9.414;2023-05-21T06:05:49;98820.56;;;16.25;100.00
41264;BME280;26998;48.714;9.414;2023-05-21T06:08:16;98816.50;;;16.63;100.00
41264;BME280;26998;48.714;9.414;2023-05-21T06:10:42;98779.13;;;16.55;100.00
41264;BME280;26998;48.714;9.414;2023-05-21T06:13:09;98772.63;;;16.79;100.00
41264;BME280;26998;48.714;9.414;2023-05-21T06:15:36;98743.91;;;16.61;100.00
41264;BME280;26998;48.714;9.414;2023-05-21T06:18:03;98751.22;;;16.49;100.00
41264;BME280;26998;48.714;9.414;2023-05-21T06:20:29;98783.91;;;16.65;100.00
41264;BME280;26998;48.714;9.414;2023-05-21T06:22:56;98785.06;;;16.69;100.00
41264;BME280;26998;48.714;9.414;2023-05-21T06:25:23;98756.03;;;16.88;100.00
41264;BME280;26998;48.714;9.414;2023-05-21T06:27:50;98765.69;;;16.72;100.00
41264;BME280;26998;48.714;9.414;2023-05-21T06:30:17;98760.19;;;16.78;100.00
41264;BME280;26998;48.714;9.414;2023-05-21T06:32:43;98783.44;;;16.68;100.00
41264;BME280;26998;48.714;9.414;2023-05-21T06:35:10;98796.44;;;16.71;100.00
41264;BME280;26998;48.714;9.414;2023-05-21T06:37:37;98768.63;;;17.11;100.00
41264;BME280;26998;48.714;9.414;2023-05-21T06:40:04;98766.16;;;16.69;100.00
41264;BME280;26998;48.714;9.414;2023-05-21T06:42:30;98821.69;;;16.65;100.00
41264;BME280;26998;48.714;9.414;2023-05-21T06:44:57;98794.13;;;17.03;100.00
41264;BME280;26998;48.714;9.414;2023-05-21T06:47:24;98760.72;;;17.38;100.00
41264;BME280;26998;48.714;9.414;2023-05-21T06:49:51;98795.75;;;16.75;100.00
41264;BME280;26998;48.714;9.414;2023-05-21T06:52:18;98831.41;;;16.89;100.00
41264;BME280;26998;48.714;9.414;2023-05-21T06:54:44;98845.84;;;16.59;100.00
41264;BME280;26998;48.714;9.414;2023-05-21T06:57:13;98860.81;;;17.02;100.00
41264;BME280;26998;48.714;9.414;2023-05-21T06:59:40;98828.25;;;17.09;100.00
41264;BME280;26998;48.714;9.414;2023-05-21T07:02:06;98853.22;;;16.88;100.00
41264;BME280;26998;48.714;9.414;2023-05-21T07:04:33;98864.38;;;16.68;100.00
41264;BME280;26998;48.714;9.414;2023-05-21T07:07:00;98880.06;;;16.94;100.00
41264;BME280;26998;48.714;9.414;2023-05-21T07:09:27;98792.84;;;17.51;100.00
41264;BME280;26998;48.714;9.414;2023-05-21T07:11:54;98769.34;;;17.85;100.00
41264;BME280;26998;48.714;9.414;2023-05-21T07:14:22;98735.09;;;17.91;100.00
41264;BME280;26998;48.714;9.414;2023-05-21T07:16:49;98747.19;;;18.05;100.00
41264;BME280;26998;48.714;9.414;2023-05-21T07:19:15;98703.34;;;18.03;100.00
41264;BME280;26998;48.714;9.414;2023-05-21T07:21:42;98715.63;;;18.11;100.00
41264;BME280;26998;48.714;9.414;2023-05-21T07:24:09;98657.16;;;18.54;100.00
41264;BME280;26998;48.714;9.414;2023-05-21T07:26:36;98626.06;;;18.83;100.00
41264;BME280;26998;48.714;9.414;2023-05-21T07:29:02;98608.66;;;18.74;100.00
41264;BME280;26998;48.714;9.414;2023-05-21T07:31:29;98600.00;;;19.09;100.00
41264;BME280;26998;48.714;9.414;2023-05-21T07:33:55;98567.88;;;19.23;100.00
41264;BME280;26998;48.714;9.414;2023-05-21T07:36:22;98562.88;;;19.05;100.00
41264;BME280;26998;48.714;9.414;2023-05-21T07:38:49;98527.84;;;19.35;100.00
41264;BME280;26998;48.714;9.414;2023-05-21T07:41:15;98533.66;;;19.12;100.00
41264;BME280;26998;48.714;9.414;2023-05-21T07:43:44;98512.75;;;19.55;100.00
41264;BME280;26998;48.714;9.414;2023-05-21T07:46:10;98510.13;;;19.70;100.00
41264;BME280;26998;48.714;9.414;2023-05-21T07:48:37;98478.22;;;19.88;100.00
41264;BME280;26998;48.714;9.414;2023-05-21T07:51:04;98446.78;;;20.07;100.00
41264;BME280;26998;48.714;9.414;2023-05-21T07:53:31;98386.00;;;19.88;100.00
41264;BME280;26998;48.714;9.414;2023-05-21T07:55:58;98350.16;;;20.37;100.00
41264;BME280;26998;48.714;9.414;2023-05-21T07:58:25;98340.44;;;19.79;100.00
41264;BME280;26998;48.714;9.414;2023-05-21T08:00:52;98348.03;;;19.98;100.00
41264;BME280;26998;48.714;9.414;2023-05-21T08:03:19;98323.81;;;20.58;100.00
41264;BME280;26998;48.714;9.414;2023-05-21T08:05:46;98323.88;;;20.22;100.00
41264;BME280;26998;48.714;9.414;2023-05-21T08:08:19;98321.44;;;20.05;100.00
41264;BME280;26998;48.714;9.414;2023-05-21T08:10:45;98308.59;;;20.62;100.00
41264;BME280;26998;48.714;9.414;2023-05-21T08:13:14;98309.44;;;20.42;100.00
41264;BME280;26998;48.714;9.414;2023-05-21T08:15:41;98320.84;;;20.39;100.00
41264;BME280;26998;48.714;9.414;2023-05-21T08:18:08;98313.81;;;20.12;100.00
41264;BME280;26998;48.714;9.414;2023-05-21T08:20:34;98319.50;;;20.51;100.00
41264;BME280;26998;48.714;9.414;2023-05-21T08:23:01;98310.50;;;20.66;100.00
41264;BME280;26998;48.714;9.414;2023-05-21T08:25:28;98312.72;;;20.44;100.00
41264;BME280;26998;48.714;9.414;2023-05-21T08:27:57;98321.47;;;19.95;100.00
41264;BME280;26998;48.714;9.414;2023-05-21T08:30:23;98329.03;;;19.67;100.00
41264;BME280;26998;48.714;9.414;2023-05-21T08:32:50;98325.78;;;20.01;100.00
41264;BME280;26998;48.714;9.414;2023-05-21T08:35:17;98318.72;;;20.25;100.00
41264;BME280;26998;48.714;9.414;2023-05-21T08:37:43;98313.28;;;20.20;100.00
41264;BME280;26998;48.714;9.414;2023-05-21T08:40:10;98315.91;;;20.66;100.00
41264;BME280;26998;48.714;9.414;2023-05-21T08:42:46;98313.22;;;20.51;100.00
41264;BME280;26998;48.714;9.414;2023-05-21T08:45:18;98312.09;;;20.67;100.00
41264;BME280;26998;48.714;9.414;2023-05-21T08:47:46;98304.06;;;20.26;100.00
41264;BME280;26998;48.714;9.414;2023-05-21T08:50:15;98304.06;;;20.32;100.00
41264;BME280;26998;48.714;9.414;2023-05-21T08:52:42;98296.72;;;20.32;100.00
41264;BME280;26998;48.714;9.414;2023-05-21T08:55:12;98301.75;;;20.74;100.00
41264;BME280;26998;48.714;9.414;2023-05-21T08:57:43;98307.28;;;20.44;100.00
41264;BME280;26998;48.714;9.414;2023-05-21T09:00:10;98301.81;;;21.19;100.00
41264;BME280;26998;48.714;9.414;2023-05-21T09:02:37;98297.94;;;21.40;100.00
41264;BME280;26998;48.714;9.414;2023-05-21T09:05:04;98287.31;;;21.39;99.81
41264;BME280;26998;48.714;9.414;2023-05-21T09:07:38;98288.34;;;21.82;98.49
41264;BME280;26998;48.714;9.414;2023-05-21T09:10:11;98291.47;;;22.00;96.03
41264;BME280;26998;48.714;9.414;2023-05-21T09:12:39;98288.88;;;22.19;97.88
41264;BME280;26998;48.714;9.414;2023-05-21T09:15:06;98297.63;;;22.40;93.03
41264;BME280;26998;48.714;9.414;2023-05-21T09:17:34;98302.25;;;22.39;94.10
41264;BME280;26998;48.714;9.414;2023-05-21T09:22:35;98289.59;;;21.95;93.39
41264;BME280;26998;48.714;9.414;2023-05-21T09:25:04;98290.91;;;22.03;94.20
41264;BME280;26998;48.714;9.414;2023-05-21T09:27:32;98292.88;;;22.74;91.57
41264;BME280;26998;48.714;9.414;2023-05-21T09:30:04;98296.56;;;23.08;90.13
41264;BME280;26998;48.714;9.414;2023-05-21T09:32:34;98288.31;;;23.13;85.89
41264;BME280;26998;48.714;9.414;2023-05-21T09:35:09;98283.81;;;23.03;87.35
41264;BME280;26998;48.714;9.414;2023-05-21T09:37:38;98286.19;;;23.28;85.20
41264;BME280;26998;48.714;9.414;2023-05-21T09:40:18;98280.06;;;23.37;85.31
41264;BME280;26998;48.714;9.414;2023-05-21T09:42:48;98279.41;;;24.43;73.46
41264;BME280;26998;48.714;9.414;2023-05-21T09:45:24;98285.13;;;23.81;77.58
41264;BME280;26998;48.714;9.414;2023-05-21T09:47:53;98272.19;;;23.35;81.78
41264;BME280;26998;48.714;9.414;2023-05-21T09:50:21;98279.94;;;23.61;80.34
41264;BME280;26998;48.714;9.414;2023-05-21T09:52:49;98272.00;;;24.43;75.02
41264;BME280;26998;48.714;9.414;2023-05-21T09:55:16;98274.22;;;24.41;70.63
41264;BME280;26998;48.714;9.414;2023-05-21T09:57:45;98274.53;;;24.81;71.91
41264;BME280;26998;48.714;9.414;2023-05-21T10:00:17;98282.84;;;23.69;79.41
41264;BME280;26998;48.714;9.414;2023-05-21T10:02:45;98274.00;;;23.78;80.76
41264;BME280;26998;48.714;9.414;2023-05-21T10:05:18;98275.66;;;23.22;83.64
41264;BME280;26998;48.714;9.414;2023-05-21T10:07:50;98271.28;;;23.91;79.93
41264;BME280;26998;48.714;9.414;2023-05-21T10:10:20;98265.78;;;24.10;79.31
41264;BME280;26998;48.714;9.414;2023-05-21T10:12:51;98267.81;;;24.32;77.60
41264;BME280;26998;48.714;9.414;2023-05-21T10:15:22;98270.81;;;24.50;74.49
41264;BME280;26998;48.714;9.414;2023-05-21T10:17:51;98269.69;;;24.51;75.75
41264;BME280;26998;48.714;9.414;2023-05-21T10:20:18;98269.91;;;25.04;69.06
41264;BME280;26998;48.714;9.414;2023-05-21T10:22:45;98275.59;;;24.25;68.09
41264;BME280;26998;48.714;9.414;2023-05-21T10:25:14;98275.28;;;23.99;73.94
41264;BME280;26998;48.714;9.414;2023-05-21T10:27:41;98272.81;;;23.84;75.54
41264;BME280;26998;48.714;9.414;2023-05-21T10:30:08;98271.28;;;23.91;74.30
41264;BME280;26998;48.714;9.414;2023-05-21T10:32:38;98265.66;;;24.02;76.61
41264;BME280;26998;48.714;9.414;2023-05-21T10:35:06;98264.22;;;23.90;76.46
41264;BME280;26998;48.714;9.414;2023-05-21T10:37:34;98263.69;;;23.74;74.95
41264;BME280;26998;48.714;9.414;2023-05-21T10:40:01;98262.31;;;23.91;76.69
41264;BME280;26998;48.714;9.414;2023-05-21T10:47:59;98269.34;;;23.59;75.98
41264;BME280;26998;48.714;9.414;2023-05-21T10:56:35;98270.16;;;23.60;64.74
41264;BME280;26998;48.714;9.414;2023-05-21T10:59:32;98262.28;;;23.77;68.57
41264;BME280;26998;48.714;9.414;2023-05-21T11:02:02;98258.22;;;24.21;61.81
41264;BME280;26998;48.714;9.414;2023-05-21T11:04:31;98261.16;;;23.78;63.67
41264;BME280;26998;48.714;9.414;2023-05-21T11:06:58;98259.09;;;24.16;67.17
41264;BME280;26998;48.714;9.414;2023-05-21T11:09:29;98260.97;;;23.88;68.38
41264;BME280;26998;48.714;9.414;2023-05-21T11:11:57;98257.78;;;24.14;65.51
41264;BME280;26998;48.714;9.414;2023-05-21T11:14:40;98265.59;;;24.34;66.48
41264;BME280;26998;48.714;9.414;2023-05-21T11:17:36;98259.66;;;24.60;66.66
41264;BME280;26998;48.714;9.414;2023-05-21T11:20:12;98259.06;;;23.89;74.01
41264;BME280;26998;48.714;9.414;2023-05-21T11:22:39;98259.03;;;24.35;70.66
41264;BME280;26998;48.714;9.414;2023-05-21T11:25:06;98266.34;;;24.54;68.47
41264;BME280;26998;48.714;9.414;2023-05-21T11:27:35;98265.84;;;24.65;59.98
41264;BME280;26998;48.714;9.414;2023-05-21T11:30:24;98259.88;;;24.50;62.94
41264;BME280;26998;48.714;9.414;2023-05-21T11:38:11;98268.50;;;25.07;49.16
41264;BME280;26998;48.714;9.414;2023-05-21T11:40:49;98266.72;;;24.88;54.18
41264;BME280;26998;48.714;9.414;2023-05-21T11:43:17;98260.44;;;25.02;58.42
41264;BME280;26998;48.714;9.414;2023-05-21T11:45:43;98261.69;;;24.68;60.11
41264;BME280;26998;48.714;9.414;2023-05-21T11:48:12;98256.53;;;24.53;65.52
41264;BME280;26998;48.714;9.414;2023-05-21T11:50:39;98251.94;;;24.89;61.59
41264;BME280;26998;48.714;9.414;2023-05-21T11:53:06;98255.41;;;24.81;61.47
41264;BME280;26998;48.714;9.414;2023-05-21T11:55:38;98264.00;;;24.61;61.54
41264;BME280;26998;48.714;9.414;2023-05-21T11:58:05;98259.44;;;24.70;62.63
41264;BME280;26998;48.714;9.414;2023-05-21T12:00:37;98259.47;;;24.56;70.71
41264;BME280;26998;48.714;9.414;2023-05-21T12:03:04;98252.75;;;24.35;73.04
41264;BME280;26998;48.714;9.414;2023-05-21T12:05:47;98253.50;;;24.54;74.03
41264;BME280;26998;48.714;9.414;2023-05-21T12:08:22;98254.59;;;24.39;78.53
41264;BME280;26998;48.714;9.414;2023-05-21T12:10:55;98251.78;;;24.45;79.06
41264;BME280;26998;48.714;9.414;2023-05-21T12:13:24;98265.09;;;24.32;77.04
41264;BME280;26998;48.714;9.414;2023-05-21T12:15:53;98258.16;;;24.68;71.35
41264;BME280;26998;48.714;9.414;2023-05-21T12:18:20;98262.75;;;25.08;65.84
41264;BME280;26998;48.714;9.414;2023-05-21T12:20:50;98262.75;;;25.08;68.30
41264;BME280;26998;48.714;9.414;2023-05-21T12:23:18;98256.03;;;24.64;72.39
41264;BME280;26998;48.714;9.414;2023-05-21T12:25:45;98265.44;;;25.36;61.89
41264;BME280;26998;48.714;9.414;2023-05-21T12:28:12;98264.69;;;25.67;57.25
41264;BME280;26998;48.714;9.414;2023-05-21T12:30:39;98266.34;;;25.54;62.31
41264;BME280;26998;48.714;9.414;2023-05-21T12:33:06;98271.91;;;25.40;59.17
41264;BME280;26998;48.714;9.414;2023-05-21T12:35:38;98261.50;;;25.51;62.17
41264;BME280;26998;48.714;9.414;2023-05-21T12:38:06;98258.09;;;25.09;67.64
41264;BME280;26998;48.714;9.414;2023-05-21T12:40:36;98260.34;;;24.93;64.98
41264;BME280;26998;48.714;9.414;2023-05-21T12:43:04;98250.31;;;25.02;66.16
41264;BME280;26998;48.714;9.414;2023-05-21T12:45:32;98263.72;;;25.26;58.10
41264;BME280;26998;48.714;9.414;2023-05-21T12:48:00;98256.47;;;25.44;59.83
41264;BME280;26998;48.714;9.414;2023-05-21T12:50:27;98255.38;;;25.68;61.17
41264;BME280;26998;48.714;9.414;2023-05-21T12:52:54;98260.44;;;25.61;59.78
41264;BME280;26998;48.714;9.414;2023-05-21T12:55:22;98261.13;;;25.44;59.41
41264;BME280;26998;48.714;9.414;2023-05-21T12:57:49;98258.03;;;25.37;61.74
41264;BME280;26998;48.714;9.414;2023-05-21T13:00:22;98277.13;;;25.73;49.28
41264;BME280;26998;48.714;9.414;2023-05-21T13:02:50;98277.16;;;25.14;49.81
41264;BME280;26998;48.714;9.414;2023-05-21T13:05:18;98274.50;;;25.09;47.93
41264;BME280;26998;48.714;9.414;2023-05-21T13:07:45;98277.38;;;25.26;46.44
41264;BME280;26998;48.714;9.414;2023-05-21T13:10:13;98276.56;;;25.40;49.29
41264;BME280;26998;48.714;9.414;2023-05-21T13:12:40;98271.81;;;25.54;47.15
41264;BME280;26998;48.714;9.414;2023-05-21T13:15:10;98273.72;;;25.67;47.57
41264;BME280;26998;48.714;9.414;2023-05-21T13:17:36;98270.97;;;25.67;48.94